Time;durP1;ratioP1;P1;durP2;ratioP2;P2;SDS_P1;SDS_P2;PMS_P1;PMS_P2;Temp;Humidity;BMP_temperature;BMP_pressure;BME280_temperature;BME280_humidity;BME280_pressure;Samples;Min_cycle;Max_cycle;Signal;HPM_P1;HPM_P2
2023/05/16 00:01:40;;;;;;;;;;;;;;;17.87;62.58;99397.31;4363004;32;32624;-92
2023/05/16 00:04:35;;;;;;;;;;;;;;;17.97;61.97;99394.75;4348289;32;34669;-89
2023/05/16 00:07:03;;;;;;;;;;;;;;;17.74;62.86;99379.72;4349372;32;32255;-89
2023/05/16 00:09:31;;;;;;;;;;;;;;;17.81;62.91;99372.94;4335078;33;34012;-89
2023/05/16 00:11:58;;;;;;;;;;;;;;;17.75;63.04;99378.75;4334951;33;33447;-89
2023/05/16 00:14:27;;;;;;;;;;;;;;;17.74;63.27;99371.72;4347422;33;32801;-90
2023/05/16 00:16:57;;;;;;;;;;;;;;;17.75;63.01;99376.06;4335139;33;32080;-89
2023/05/16 00:19:26;;;;;;;;;;;;;;;17.80;62.93;99360.53;4359355;32;32512;-89
2023/05/16 00:21:54;;;;;;;;;;;;;;;17.79;63.04;99364.19;4347271;33;33086;-90
2023/05/16 00:24:22;;;;;;;;;;;;;;;17.66;63.62;99353.63;4347029;33;33165;-89
2023/05/16 00:26:49;;;;;;;;;;;;;;;17.73;63.18;99357.53;4363525;32;31935;-89
2023/05/16 00:29:18;;;;;;;;;;;;;;;17.76;63.35;99364.44;4337763;32;33938;-89
2023/05/16 00:31:46;;;;;;;;;;;;;;;17.75;63.33;99362.72;4330210;32;32755;-89
2023/05/16 00:34:14;;;;;;;;;;;;;;;17.78;63.35;99365.16;4336914;32;33042;-88
2023/05/16 00:36:42;;;;;;;;;;;;;;;17.79;63.36;99373.03;4356095;32;33319;-88
2023/05/16 00:39:10;;;;;;;;;;;;;;;17.67;63.60;99374.00;4333442;32;34468;-88
2023/05/16 00:41:37;;;;;;;;;;;;;;;17.55;64.12;99372.31;4370116;32;33519;-88
2023/05/16 00:44:05;;;;;;;;;;;;;;;17.50;63.89;99370.00;4343964;32;33113;-88
2023/05/16 00:46:33;;;;;;;;;;;;;;;17.60;63.86;99368.28;4343394;32;32663;-88
2023/05/16 00:49:00;;;;;;;;;;;;;;;17.62;63.74;99368.19;4354110;32;32738;-87
2023/05/16 00:51:28;;;;;;;;;;;;;;;17.61;63.54;99378.03;4356137;32;32508;-87
2023/05/16 00:53:57;;;;;;;;;;;;;;;17.47;64.30;99377.38;4357785;32;33806;-88
2023/05/16 00:56:24;;;;;;;;;;;;;;;17.46;64.43;99387.22;4342953;32;32180;-87
2023/05/16 00:58:53;;;;;;;;;;;;;;;17.39;64.85;99389.53;4340633;32;33300;-88
2023/05/16 01:01:20;;;;;;;;;;;;;;;17.56;63.79;99384.66;4355535;32;34465;-88
2023/05/16 01:03:48;;;;;;;;;;;;;;;17.47;64.35;99380.94;4346553;32;33759;-87
2023/05/16 01:06:18;;;;;;;;;;;;;;;17.47;64.37;99383.59;4333457;32;33711;-88
2023/05/16 01:08:46;;;;;;;;;;;;;;;17.42;64.65;99399.09;4345346;32;33342;-87
2023/05/16 01:11:27;;;;;;;;;;;;;;;17.53;64.44;99393.78;4347957;32;33719;-87
2023/05/16 01:13:58;;;;;;;;;;;;;;;17.53;64.40;99412.47;4347064;32;33590;-87
2023/05/16 01:16:49;;;;;;;;;;;;;;;17.50;64.39;99396.69;4363296;32;33363;-87
2023/05/16 01:19:29;;;;;;;;;;;;;;;17.55;64.40;99382.97;4343899;32;34204;-87
2023/05/16 01:22:01;;;;;;;;;;;;;;;17.54;64.36;99376.78;4349086;32;35264;-87
2023/05/16 01:24:33;;;;;;;;;;;;;;;17.48;64.66;99382.63;4346402;32;32962;-86
2023/05/16 01:27:02;;;;;;;;;;;;;;;17.50;64.34;99385.16;4346977;32;32594;-86
2023/05/16 01:29:30;;;;;;;;;;;;;;;17.43;64.89;99389.31;4345176;32;32887;-86
2023/05/16 01:31:57;;;;;;;;;;;;;;;17.16;65.60;99387.81;4333614;32;33395;-86
2023/05/16 01:34:25;;;;;;;;;;;;;;;17.26;65.53;99398.59;4346046;32;34022;-86
2023/05/16 01:37:13;;;;;;;;;;;;;;;17.34;64.92;99380.19;4335150;32;31678;-90
2023/05/16 01:39:46;;;;;;;;;;;;;;;17.41;64.84;99373.38;4346291;32;32780;-88
2023/05/16 01:42:14;;;;;;;;;;;;;;;17.40;64.20;99363.69;4326439;32;33118;-88
2023/05/16 01:44:43;;;;;;;;;;;;;;;17.10;65.67;99367.78;4351096;32;32999;-88
2023/05/16 01:47:12;;;;;;;;;;;;;;;17.09;65.43;99362.56;4350932;32;32866;-88
2023/05/16 01:49:41;;;;;;;;;;;;;;;16.97;65.72;99361.69;4334750;32;32933;-88
2023/05/16 01:52:19;;;;;;;;;;;;;;;17.31;64.26;99356.41;4336985;32;34513;-88
2023/05/16 01:54:48;;;;;;;;;;;;;;;17.09;64.81;99350.09;4335046;32;34830;-87
2023/05/16 01:57:15;;;;;;;;;;;;;;;17.12;64.97;99349.84;4344443;32;33104;-87
2023/05/16 01:59:44;;;;;;;;;;;;;;;17.11;65.13;99350.81;4348196;32;34558;-87
2023/05/16 02:02:12;;;;;;;;;;;;;;;17.11;65.37;99342.81;4334364;32;33359;-87
2023/05/16 02:04:40;;;;;;;;;;;;;;;17.23;64.99;99346.31;4347126;32;33423;-87
2023/05/16 02:07:07;;;;;;;;;;;;;;;17.15;65.19;99338.94;4349414;32;33448;-89
2023/05/16 02:09:35;;;;;;;;;;;;;;;17.13;65.51;99334.69;4350654;32;32963;-89
2023/05/16 02:12:03;;;;;;;;;;;;;;;17.20;64.92;99341.25;4347807;33;34954;-89
2023/05/16 02:14:31;;;;;;;;;;;;;;;17.20;65.16;99353.75;4347400;32;33901;-89
2023/05/16 02:16:59;;;;;;;;;;;;;;;17.13;65.15;99359.53;4348564;32;32227;-89
2023/05/16 02:19:27;;;;;;;;;;;;;;;17.18;65.33;99350.31;4338043;32;32921;-89
2023/05/16 02:21:55;;;;;;;;;;;;;;;17.25;64.99;99346.22;4338198;32;33505;-89
2023/05/16 02:24:30;;;;;;;;;;;;;;;17.27;64.59;99336.25;4347604;32;33229;-88
2023/05/16 02:26:58;;;;;;;;;;;;;;;17.14;65.13;99326.56;4352837;32;32034;-89
2023/05/16 02:29:26;;;;;;;;;;;;;;;17.14;65.18;99326.56;4345738;32;34100;-89
2023/05/16 02:31:53;;;;;;;;;;;;;;;17.12;65.12;99315.16;4344803;32;34572;-89
2023/05/16 02:34:21;;;;;;;;;;;;;;;17.18;64.69;99320.97;4332672;32;32953;-89
2023/05/16 02:36:50;;;;;;;;;;;;;;;17.10;65.11;99309.09;4343481;32;32472;-89
2023/05/16 02:39:17;;;;;;;;;;;;;;;17.13;65.04;99305.34;4332481;32;32886;-89
2023/05/16 02:41:46;;;;;;;;;;;;;;;17.05;65.21;99308.63;4343350;32;34113;-88
2023/05/16 02:44:15;;;;;;;;;;;;;;;17.01;65.20;99324.97;4335048;32;33769;-89
2023/05/16 02:46:42;;;;;;;;;;;;;;;16.92;65.44;99326.53;4343077;32;34023;-88
2023/05/16 02:49:10;;;;;;;;;;;;;;;16.92;64.75;99337.22;4331628;32;33861;-89
2023/05/16 02:51:40;;;;;;;;;;;;;;;16.98;65.22;99346.53;4347714;32;33895;-89
2023/05/16 02:54:09;;;;;;;;;;;;;;;16.81;65.81;99343.38;4344882;32;33362;-89
2023/05/16 02:56:37;;;;;;;;;;;;;;;16.70;66.22;99350.44;4346684;32;33399;-89
2023/05/16 02:59:07;;;;;;;;;;;;;;;16.83;65.84;99332.59;4343317;32;33819;-89
2023/05/16 03:01:37;;;;;;;;;;;;;;;16.96;64.94;99320.00;4345447;32;34185;-89
2023/05/16 03:04:07;;;;;;;;;;;;;;;16.86;65.13;99311.03;4352698;32;32920;-89
2023/05/16 03:06:35;;;;;;;;;;;;;;;16.92;65.18;99307.87;4370291;32;32298;-89
2023/05/16 03:09:03;;;;;;;;;;;;;;;16.86;65.42;99300.34;4355128;32;33276;-87
2023/05/16 03:11:44;;;;;;;;;;;;;;;16.89;65.21;99302.75;4344525;32;34568;-87
2023/05/16 03:14:14;;;;;;;;;;;;;;;16.70;65.65;99305.13;4360854;32;34223;-87
2023/05/16 03:16:42;;;;;;;;;;;;;;;16.67;65.69;99314.22;4373544;32;32070;-89
2023/05/16 03:19:10;;;;;;;;;;;;;;;16.70;65.83;99321.97;4356918;32;33979;-88
2023/05/16 03:21:37;;;;;;;;;;;;;;;16.74;65.79;99333.28;4331086;32;33071;-88
2023/05/16 03:24:06;;;;;;;;;;;;;;;16.82;65.66;99336.22;4343891;32;32374;-89
2023/05/16 03:26:35;;;;;;;;;;;;;;;16.86;65.29;99335.88;4355561;32;34323;-88
2023/05/16 03:29:03;;;;;;;;;;;;;;;16.94;65.09;99335.25;4343840;32;33049;-87
2023/05/16 03:31:31;;;;;;;;;;;;;;;16.89;65.28;99329.44;4342493;32;34079;-88
2023/05/16 03:33:59;;;;;;;;;;;;;;;17.02;64.61;99332.84;4359138;32;34248;-88
2023/05/16 03:36:28;;;;;;;;;;;;;;;16.83;65.34;99335.25;4356044;32;31948;-89
2023/05/16 03:39:03;;;;;;;;;;;;;;;16.85;65.43;99328.84;4367928;32;34917;-89
2023/05/16 03:41:31;;;;;;;;;;;;;;;16.89;65.44;99332.09;4341651;32;33135;-88
2023/05/16 03:43:59;;;;;;;;;;;;;;;16.81;66.07;99313.19;4342772;32;32861;-89
2023/05/16 03:46:27;;;;;;;;;;;;;;;16.85;65.51;99299.50;4359901;32;32599;-89
2023/05/16 03:48:55;;;;;;;;;;;;;;;16.86;65.63;99300.34;4356285;32;34654;-89
2023/05/16 03:51:25;;;;;;;;;;;;;;;16.75;66.06;99298.50;4353606;32;34197;-89
2023/05/16 03:53:53;;;;;;;;;;;;;;;16.72;66.18;99303.25;4355857;32;33111;-87
2023/05/16 03:56:21;;;;;;;;;;;;;;;16.82;65.89;99315.72;4353139;32;31600;-87
2023/05/16 03:58:49;;;;;;;;;;;;;;;16.79;66.11;99305.28;4365475;32;35011;-87
2023/05/16 04:01:19;;;;;;;;;;;;;;;16.90;65.84;99307.13;4365146;32;33944;-87
2023/05/16 04:03:49;;;;;;;;;;;;;;;16.89;65.64;99305.44;4353181;32;33426;-87
2023/05/16 04:06:18;;;;;;;;;;;;;;;17.07;64.75;99303.16;4344304;32;32305;-86
2023/05/16 04:08:45;;;;;;;;;;;;;;;17.20;63.99;99297.72;4346518;32;33412;-86
2023/05/16 04:11:13;;;;;;;;;;;;;;;17.06;64.53;99302.31;4354991;32;33122;-86
2023/05/16 04:13:41;;;;;;;;;;;;;;;16.94;65.24;99297.06;4331449;32;33287;-87
2023/05/16 04:16:11;;;;;;;;;;;;;;;16.83;65.69;99309.44;4343100;32;33804;-87
2023/05/16 04:18:40;;;;;;;;;;;;;;;16.78;66.00;99329.41;4364586;32;34027;-89
2023/05/16 04:21:10;;;;;;;;;;;;;;;16.86;66.25;99313.69;4366687;32;34638;-88
2023/05/16 04:23:40;;;;;;;;;;;;;;;17.01;65.69;99307.16;4344779;32;32812;-88
2023/05/16 04:26:13;;;;;;;;;;;;;;;17.08;64.90;99305.69;4342930;32;32365;-88
2023/05/16 04:28:42;;;;;;;;;;;;;;;16.89;65.82;99326.75;4343818;32;33498;-88
2023/05/16 04:31:10;;;;;;;;;;;;;;;16.69;66.87;99346.09;4340221;32;32728;-87
2023/05/16 04:36:14;;;;;;;;;;;;;;;16.88;65.72;99346.41;4343944;32;32513;-87
2023/05/16 04:38:42;;;;;;;;;;;;;;;17.09;65.27;99349.22;4359855;32;33469;-87
2023/05/16 04:41:12;;;;;;;;;;;;;;;16.97;65.95;99343.03;4359485;32;34231;-88
2023/05/16 04:43:42;;;;;;;;;;;;;;;16.97;66.29;99344.84;4359913;32;35500;-88
2023/05/16 04:46:11;;;;;;;;;;;;;;;17.04;65.75;99333.59;4346244;32;32987;-88
2023/05/16 04:48:41;;;;;;;;;;;;;;;16.94;66.61;99332.59;4344905;32;33927;-87
2023/05/16 04:51:16;;;;;;;;;;;;;;;16.94;66.99;99337.94;4351908;32;32121;-88
2023/05/16 04:53:45;;;;;;;;;;;;;;;17.10;66.43;99337.59;4365990;32;33330;-88
2023/05/16 04:56:13;;;;;;;;;;;;;;;17.15;66.27;99346.94;4340541;32;33460;-88
2023/05/16 04:58:42;;;;;;;;;;;;;;;17.15;66.46;99354.94;4329678;32;33835;-88
2023/05/16 05:01:13;;;;;;;;;;;;;;;17.12;66.72;99357.84;4378145;32;33238;-88
2023/05/16 05:03:41;;;;;;;;;;;;;;;17.25;66.24;99348.91;4326074;32;33667;-88
2023/05/16 05:06:09;;;;;;;;;;;;;;;17.27;66.35;99346.94;4339862;33;32837;-87
2023/05/16 05:08:40;;;;;;;;;;;;;;;17.33;66.30;99347.31;4326284;33;33005;-89
2023/05/16 05:11:10;;;;;;;;;;;;;;;17.45;65.75;99353.50;4324623;33;32810;-89
2023/05/16 05:13:39;;;;;;;;;;;;;;;17.30;66.24;99355.56;4324836;33;34859;-89
2023/05/16 05:16:08;;;;;;;;;;;;;;;17.01;67.58;99357.84;4324391;33;32181;-90
2023/05/16 05:18:38;;;;;;;;;;;;;;;17.18;66.74;99369.00;4336431;33;34220;-89
2023/05/16 05:21:06;;;;;;;;;;;;;;;17.15;66.55;99365.62;4324575;33;33128;-89
2023/05/16 05:31:33;;;;;;;;;;;;;;;17.31;65.62;99354.59;4357918;32;33902;-88
2023/05/16 05:34:02;;;;;;;;;;;;;;;17.32;65.68;99355.44;4327532;33;32944;-90
2023/05/16 05:36:33;;;;;;;;;;;;;;;17.45;65.21;99342.81;4328763;32;32693;-90
2023/05/16 05:39:03;;;;;;;;;;;;;;;17.53;64.78;99343.06;4335022;33;33884;-90
2023/05/16 05:41:37;;;;;;;;;;;;;;;17.44;64.81;99354.47;4346406;33;32416;-90
2023/05/16 05:46:40;;;;;;;;;;;;;;;17.62;63.82;99341.50;4339882;32;32416;-90
2023/05/16 05:49:08;;;;;;;;;;;;;;;17.57;63.98;99346.34;4356272;32;32819;-90
2023/05/16 05:51:37;;;;;;;;;;;;;;;17.44;64.56;99350.97;4331061;32;33362;-90
2023/05/16 05:54:05;;;;;;;;;;;;;;;17.46;64.93;99352.53;4340488;32;33562;-90
2023/05/16 05:56:44;;;;;;;;;;;;;;;17.47;64.94;99353.37;4341952;32;34118;-90
2023/05/16 05:59:13;;;;;;;;;;;;;;;17.55;65.00;99345.59;4317491;33;33319;-89
2023/05/16 06:01:45;;;;;;;;;;;;;;;17.67;64.55;99340.16;4341149;33;34927;-91
2023/05/16 06:04:15;;;;;;;;;;;;;;;17.59;64.86;99334.56;4353612;32;33040;-90
2023/05/16 06:06:43;;;;;;;;;;;;;;;17.66;64.83;99337.59;4338429;32;32241;-88
2023/05/16 06:09:14;;;;;;;;;;;;;;;17.64;65.37;99334.19;4362918;32;33446;-90
2023/05/16 06:11:44;;;;;;;;;;;;;;;17.62;65.83;99337.00;4363107;32;33599;-90
2023/05/16 06:14:14;;;;;;;;;;;;;;;17.62;66.03;99330.81;4352794;32;33952;-90
2023/05/16 06:16:46;;;;;;;;;;;;;;;17.62;66.21;99336.16;4352322;32;33550;-90
2023/05/16 06:19:15;;;;;;;;;;;;;;;17.71;65.92;99323.84;4349434;32;33763;-89
2023/05/16 06:21:44;;;;;;;;;;;;;;;17.71;66.02;99318.53;4336793;32;33207;-88
2023/05/16 06:24:13;;;;;;;;;;;;;;;18.01;64.53;99310.72;4355751;32;33853;-91
2023/05/16 06:26:48;;;;;;;;;;;;;;;17.94;64.28;99311.34;4363029;32;33594;-90
2023/05/16 06:29:18;;;;;;;;;;;;;;;17.94;64.74;99316.69;4355077;32;33125;-89
2023/05/16 06:31:49;;;;;;;;;;;;;;;17.73;65.03;99312.12;4356615;32;34271;-89
2023/05/16 06:34:26;;;;;;;;;;;;;;;17.69;65.92;99320.47;4354546;32;33012;-90
2023/05/16 06:36:55;;;;;;;;;;;;;;;17.93;64.89;99305.16;4346494;32;32478;-89
2023/05/16 06:39:26;;;;;;;;;;;;;;;17.81;65.16;99309.69;4332901;32;32911;-89
2023/05/16 06:41:55;;;;;;;;;;;;;;;17.76;66.01;99301.22;4343524;32;33305;-89
2023/05/16 06:44:24;;;;;;;;;;;;;;;17.86;65.03;99295.97;4374128;32;33964;-89
2023/05/16 06:46:56;;;;;;;;;;;;;;;17.62;66.42;99310.31;4345573;32;33440;-89
2023/05/16 06:49:25;;;;;;;;;;;;;;;17.66;66.69;99318.91;4359889;32;33602;-91
2023/05/16 06:52:08;;;;;;;;;;;;;;;17.53;65.75;99304.84;4365499;32;33393;-90
2023/05/16 06:54:42;;;;;;;;;;;;;;;17.90;63.85;99308.09;4375716;32;32503;-90
2023/05/16 06:57:13;;;;;;;;;;;;;;;17.88;63.43;99305.53;4357858;32;32085;-90
2023/05/16 07:00:01;;;;;;;;;;;;;;;17.30;64.65;99317.34;4377068;32;34071;-88
2023/05/16 07:02:31;;;;;;;;;;;;;;;17.67;63.98;99312.59;4352953;32;32954;-89
2023/05/16 07:05:00;;;;;;;;;;;;;;;17.69;63.48;99315.97;4390927;32;33504;-90
2023/05/16 07:07:29;;;;;;;;;;;;;;;17.40;63.59;99321.00;4376426;32;32084;-90
2023/05/16 07:09:58;;;;;;;;;;;;;;;17.09;66.12;99318.09;4361857;32;32987;-90
2023/05/16 07:12:27;;;;;;;;;;;;;;;17.34;64.20;99326.81;4357206;32;34264;-90
2023/05/16 07:14:57;;;;;;;;;;;;;;;17.40;63.82;99321.84;4355843;32;33814;-90
2023/05/16 07:17:29;;;;;;;;;;;;;;;17.28;64.43;99321.94;4365606;32;31919;-90
2023/05/16 07:19:59;;;;;;;;;;;;;;;17.35;64.75;99313.34;4389986;32;33230;-89
2023/05/16 07:22:38;;;;;;;;;;;;;;;17.52;64.38;99312.00;4365756;32;32933;-90
2023/05/16 07:25:11;;;;;;;;;;;;;;;17.14;65.78;99299.91;4386107;32;33434;-90
2023/05/16 07:27:43;;;;;;;;;;;;;;;17.03;66.94;99297.22;4371789;32;32502;-90
2023/05/16 07:30:12;;;;;;;;;;;;;;;17.06;67.20;99304.97;4387560;32;33460;-90
2023/05/16 07:32:46;;;;;;;;;;;;;;;17.14;66.59;99299.91;4385073;32;33341;-90
2023/05/16 07:35:17;;;;;;;;;;;;;;;17.36;65.69;99298.19;4358893;32;33150;-90
2023/05/16 07:37:47;;;;;;;;;;;;;;;17.45;65.53;99297.44;4375556;32;32197;-90
2023/05/16 07:40:20;;;;;;;;;;;;;;;17.07;67.24;99298.66;4358069;32;33048;-90
2023/05/16 07:42:48;;;;;;;;;;;;;;;17.11;67.10;99300.13;4380490;32;32999;-89
2023/05/16 07:45:17;;;;;;;;;;;;;;;16.91;68.56;99298.19;4369880;32;33475;-90
2023/05/16 07:47:46;;;;;;;;;;;;;;;16.58;70.14;99302.44;4353671;32;32389;-89
2023/05/16 07:50:18;;;;;;;;;;;;;;;16.72;69.56;99297.91;4367972;32;33074;-90
2023/05/16 07:52:48;;;;;;;;;;;;;;;16.93;68.78;99293.56;4354830;32;32858;-90
2023/05/16 07:55:42;;;;;;;;;;;;;;;16.91;69.08;99292.84;4356014;32;32972;-89
2023/05/16 07:58:15;;;;;;;;;;;;;;;16.63;70.33;99292.28;4362531;32;33530;-89
2023/05/16 08:00:43;;;;;;;;;;;;;;;16.80;69.88;99304.31;4358092;32;34055;-90
2023/05/16 08:03:15;;;;;;;;;;;;;;;16.46;71.29;99297.19;4371868;32;33981;-89
2023/05/16 08:05:43;;;;;;;;;;;;;;;16.82;70.16;99294.41;4377959;32;32986;-89
2023/05/16 08:08:14;;;;;;;;;;;;;;;17.10;69.16;99293.09;4365905;32;31967;-90
2023/05/16 08:10:46;;;;;;;;;;;;;;;16.89;70.48;99310.75;4364386;32;34291;-90
2023/05/16 08:13:19;;;;;;;;;;;;;;;16.33;72.32;99307.91;4362673;32;32656;-90
2023/05/16 08:16:10;;;;;;;;;;;;;;;16.94;70.35;99313.91;4354726;32;32598;-90
2023/05/16 08:18:41;;;;;;;;;;;;;;;16.77;70.77;99307.25;4365024;32;33352;-90
2023/05/16 08:21:10;;;;;;;;;;;;;;;16.64;71.59;99317.13;4368105;32;32254;-88
2023/05/16 08:23:40;;;;;;;;;;;;;;;16.67;72.27;99305.38;4382233;32;32963;-87
2023/05/16 08:28:58;;;;;;;;;;;;;;;17.33;69.22;99293.09;4378749;32;33632;-87
2023/05/16 08:31:27;;;;;;;;;;;;;;;17.55;68.36;99282.38;4368436;32;34184;-89
2023/05/16 08:34:22;;;;;;;;;;;;;;;17.34;69.75;99284.13;4362302;32;32294;-87
2023/05/16 08:36:53;;;;;;;;;;;;;;;17.40;69.90;99270.28;4373663;32;34799;-86
2023/05/16 08:39:21;;;;;;;;;;;;;;;17.29;70.53;99284.50;4373198;32;32720;-86
2023/05/16 08:41:49;;;;;;;;;;;;;;;17.10;71.60;99279.75;4365688;32;33727;-87
2023/05/16 08:44:20;;;;;;;;;;;;;;;17.14;71.54;99275.88;4365386;32;34576;-86
2023/05/16 08:46:52;;;;;;;;;;;;;;;16.98;72.11;99274.53;4374502;32;34385;-86
2023/05/16 08:49:20;;;;;;;;;;;;;;;16.92;72.50;99273.22;4374917;32;33172;-86
2023/05/16 08:51:51;;;;;;;;;;;;;;;16.95;72.99;99275.66;4363382;32;33999;-87
2023/05/16 08:54:21;;;;;;;;;;;;;;;16.78;74.30;99286.75;4368862;32;34344;-86
2023/05/16 08:56:51;;;;;;;;;;;;;;;16.96;73.65;99276.50;4354574;32;32766;-86
2023/05/16 08:59:19;;;;;;;;;;;;;;;17.15;72.87;99280.25;4367817;32;34130;-87
2023/05/16 09:01:50;;;;;;;;;;;;;;;17.17;73.22;99277.44;4368833;32;33675;-87
2023/05/16 09:04:18;;;;;;;;;;;;;;;16.94;74.38;99287.25;4375797;32;33382;-87
2023/05/16 09:06:51;;;;;;;;;;;;;;;16.85;74.38;99288.84;4366577;32;33181;-87
2023/05/16 09:09:20;;;;;;;;;;;;;;;17.25;72.73;99279.53;4373120;32;32960;-86
2023/05/16 09:11:56;;;;;;;;;;;;;;;17.19;72.70;99275.53;4365800;32;33900;-86
2023/05/16 09:14:25;;;;;;;;;;;;;;;16.87;74.19;99275.38;4365297;32;35311;-88
2023/05/16 09:17:06;;;;;;;;;;;;;;;16.84;74.48;99270.28;4350995;32;34875;-86
2023/05/16 09:19:43;;;;;;;;;;;;;;;16.69;74.72;99271.44;4365114;32;33424;-87
2023/05/16 09:22:13;;;;;;;;;;;;;;;16.88;74.01;99271.75;4365738;32;34213;-87
2023/05/16 09:24:44;;;;;;;;;;;;;;;17.00;74.46;99273.47;4377861;32;33233;-87
2023/05/16 09:27:17;;;;;;;;;;;;;;;17.53;71.45;99271.00;4357698;32;33209;-88
2023/05/16 09:29:49;;;;;;;;;;;;;;;17.06;73.26;99259.63;4366446;32;33598;-87
2023/05/16 09:32:17;;;;;;;;;;;;;;;16.87;74.73;99259.38;4345837;32;32781;-87
2023/05/16 09:34:50;;;;;;;;;;;;;;;16.90;74.66;99253.78;4387259;32;33813;-88
2023/05/16 09:37:19;;;;;;;;;;;;;;;17.17;74.20;99256.09;4389666;32;34030;-88
2023/05/16 09:39:53;;;;;;;;;;;;;;;17.31;72.93;99260.34;4371764;32;33127;-88
2023/05/16 09:42:24;;;;;;;;;;;;;;;16.96;74.75;99265.81;4377341;32;33853;-88
2023/05/16 09:44:55;;;;;;;;;;;;;;;17.08;74.17;99271.00;4381409;32;33527;-88
2023/05/16 09:47:29;;;;;;;;;;;;;;;17.01;74.19;99266.31;4386213;32;33584;-88
2023/05/16 09:49:58;;;;;;;;;;;;;;;17.32;73.14;99281.56;4389489;32;31435;-87
2023/05/16 09:52:30;;;;;;;;;;;;;;;16.78;75.21;99276.94;4388040;32;34197;-88
2023/05/16 09:54:58;;;;;;;;;;;;;;;17.05;73.87;99267.75;4384570;32;32742;-88
2023/05/16 09:57:29;;;;;;;;;;;;;;;17.28;73.13;99268.59;4381976;32;34307;-87
2023/05/16 10:00:09;;;;;;;;;;;;;;;16.73;75.84;99259.59;4393309;32;33820;-87
2023/05/16 10:02:39;;;;;;;;;;;;;;;16.98;74.59;99256.72;4391163;32;34299;-87
2023/05/16 10:05:10;;;;;;;;;;;;;;;16.86;75.59;99257.69;4391191;32;34896;-87
2023/05/16 10:07:38;;;;;;;;;;;;;;;17.21;74.28;99262.06;4375828;32;32624;-87
2023/05/16 10:10:07;;;;;;;;;;;;;;;17.33;73.54;99261.94;4361618;32;31979;-86
2023/05/16 10:12:35;;;;;;;;;;;;;;;17.16;74.22;99259.75;4389576;32;33518;-86
2023/05/16 10:15:06;;;;;;;;;;;;;;;17.43;73.19;99256.69;4379989;32;34228;-88
2023/05/16 10:17:40;;;;;;;;;;;;;;;17.28;73.89;99252.56;4377960;32;33770;-88
2023/05/16 10:20:11;;;;;;;;;;;;;;;17.24;74.25;99248.47;4382900;32;33094;-88
2023/05/16 10:22:41;;;;;;;;;;;;;;;17.36;73.44;99245.66;4380037;32;34417;-88
2023/05/16 10:25:34;;;;;;;;;;;;;;;17.17;74.57;99236.59;4392424;32;33710;-87
2023/05/16 10:28:09;;;;;;;;;;;;;;;17.47;73.26;99231.47;4393378;32;33876;-88
2023/05/16 10:30:42;;;;;;;;;;;;;;;17.11;74.64;99230.78;4391062;32;33904;-87
2023/05/16 10:33:16;;;;;;;;;;;;;;;16.97;75.57;99239.03;4392673;32;34051;-87
2023/05/16 10:35:45;;;;;;;;;;;;;;;16.98;75.79;99237.19;4393791;32;33460;-87
2023/05/16 10:38:14;;;;;;;;;;;;;;;17.41;74.17;99234.59;4394410;32;32940;-87
2023/05/16 10:40:44;;;;;;;;;;;;;;;17.14;74.50;99241.22;4393436;32;33558;-88
2023/05/16 10:43:21;;;;;;;;;;;;;;;17.26;74.34;99230.50;4370516;32;33473;-87
2023/05/16 10:45:55;;;;;;;;;;;;;;;16.97;75.90;99227.50;4367904;32;33296;-87
2023/05/16 10:48:32;;;;;;;;;;;;;;;16.92;76.11;99230.53;4405810;32;33876;-86
2023/05/16 10:51:02;;;;;;;;;;;;;;;17.29;74.52;99192.94;4380856;32;32349;-88
2023/05/16 10:53:33;;;;;;;;;;;;;;;17.64;73.83;99185.53;4385293;32;32827;-88
2023/05/16 10:56:03;;;;;;;;;;;;;;;17.51;74.24;99192.00;4364770;32;33185;-88
2023/05/16 10:58:33;;;;;;;;;;;;;;;17.47;74.83;99188.75;4371756;32;33388;-87
2023/05/16 11:01:19;;;;;;;;;;;;;;;17.60;74.29;99197.44;4401533;32;33824;-88
2023/05/16 11:03:56;;;;;;;;;;;;;;;17.48;74.99;99184.28;4407334;32;33700;-89
2023/05/16 11:06:41;;;;;;;;;;;;;;;17.17;76.13;99180.56;4365997;32;32683;-89
2023/05/16 11:09:14;;;;;;;;;;;;;;;17.05;76.66;99172.59;4369673;32;34744;-88
2023/05/16 11:11:51;;;;;;;;;;;;;;;17.49;75.57;99184.13;4383702;32;31888;-88
2023/05/16 11:14:37;;;;;;;;;;;;;;;17.21;76.40;99166.00;4381511;32;33502;-88
2023/05/16 11:17:08;;;;;;;;;;;;;;;17.74;74.71;99155.44;4379623;32;34527;-88
2023/05/16 11:19:46;;;;;;;;;;;;;;;17.25;76.03;99146.97;4404604;32;35095;-89
2023/05/16 11:22:17;;;;;;;;;;;;;;;17.46;76.52;99149.69;4393017;32;32423;-87
2023/05/16 11:24:52;;;;;;;;;;;;;;;17.55;75.38;99153.41;4383075;32;34106;-88
2023/05/16 11:27:25;;;;;;;;;;;;;;;17.89;74.28;99146.13;4380004;32;33579;-88
2023/05/16 11:30:20;;;;;;;;;;;;;;;17.76;74.57;99140.16;4406815;32;33205;-88
2023/05/16 11:32:55;;;;;;;;;;;;;;;17.72;74.73;99152.03;4390488;32;32710;-88
2023/05/16 11:35:30;;;;;;;;;;;;;;;17.71;74.83;99158.31;4388825;32;34689;-88
2023/05/16 11:37:59;;;;;;;;;;;;;;;17.74;74.83;99155.44;4325991;32;1239637;-89
2023/05/16 11:40:33;;;;;;;;;;;;;;;17.58;75.25;99154.00;4377007;32;33750;-89
2023/05/16 11:43:04;;;;;;;;;;;;;;;17.38;76.74;99153.00;4388632;32;32874;-88
2023/05/16 11:45:36;;;;;;;;;;;;;;;17.53;76.10;99145.53;4376793;32;33411;-88
2023/05/16 11:48:10;;;;;;;;;;;;;;;17.41;76.63;99150.06;4388321;32;34909;-90
2023/05/16 11:50:54;;;;;;;;;;;;;;;17.65;75.61;99144.50;4389088;32;34123;-89
2023/05/16 11:53:23;;;;;;;;;;;;;;;17.54;76.35;99144.56;4389747;32;32183;-89
2023/05/16 11:55:53;;;;;;;;;;;;;;;17.97;74.58;99132.97;4390102;32;33706;-89
2023/05/16 11:58:23;;;;;;;;;;;;;;;17.86;74.79;99135.72;4388493;32;33780;-89
2023/05/16 12:00:53;;;;;;;;;;;;;;;18.12;73.73;99134.34;4379459;32;34261;-90
2023/05/16 12:03:24;;;;;;;;;;;;;;;17.47;76.17;99140.72;4364925;32;33691;-89
2023/05/16 12:05:59;;;;;;;;;;;;;;;17.87;75.36;99137.41;4380321;32;32528;-89
2023/05/16 12:08:29;;;;;;;;;;;;;;;18.25;74.36;99135.97;4383546;32;33002;-89
2023/05/16 12:11:03;;;;;;;;;;;;;;;17.77;75.22;99125.81;4387871;32;33749;-88
2023/05/16 12:13:38;;;;;;;;;;;;;;;17.67;75.05;99129.22;4386076;32;32369;-88
2023/05/16 12:16:16;;;;;;;;;;;;;;;17.77;75.72;99141.84;4366594;32;32934;-92
2023/05/16 12:18:50;;;;;;;;;;;;;;;18.05;73.90;99130.50;4378197;32;34356;-89
2023/05/16 12:21:45;;;;;;;;;;;;;;;18.12;73.68;99136.16;4382052;32;34200;-90
2023/05/16 12:24:46;;;;;;;;;;;;;;;18.00;73.26;99143.41;4357990;32;33865;-89
2023/05/16 12:27:20;;;;;;;;;;;;;;;18.23;73.01;99138.78;4361005;32;33271;-90
2023/05/16 12:29:57;;;;;;;;;;;;;;;18.43;72.26;99121.03;4350939;32;33822;-91
2023/05/16 12:32:42;;;;;;;;;;;;;;;18.11;74.06;99135.31;4349784;32;32838;-91
2023/05/16 12:35:39;;;;;;;;;;;;;;;18.17;73.56;99128.59;4388854;32;33773;-90
2023/05/16 12:38:32;;;;;;;;;;;;;;;18.24;73.23;99128.94;4361959;32;33443;-91
2023/05/16 12:41:31;;;;;;;;;;;;;;;17.89;75.37;99125.59;4341474;32;34145;-90
2023/05/16 12:44:18;;;;;;;;;;;;;;;17.90;74.87;99131.81;4376384;32;32972;-90
2023/05/16 12:46:57;;;;;;;;;;;;;;;18.41;73.20;99131.81;4382101;32;32230;-89
2023/05/16 12:50:13;;;;;;;;;;;;;;;18.33;73.45;99139.69;4374198;32;33211;-91
2023/05/16 12:52:59;;;;;;;;;;;;;;;18.40;73.67;99142.66;4369981;32;34091;-90
2023/05/16 12:55:59;;;;;;;;;;;;;;;18.40;73.32;99138.16;4380261;32;32568;-92
2023/05/16 12:58:42;;;;;;;;;;;;;;;18.54;72.90;99131.63;4382637;32;32211;-90
2023/05/16 13:01:39;;;;;;;;;;;;;;;18.44;73.52;99117.37;4366952;32;32897;-90
2023/05/16 13:04:17;;;;;;;;;;;;;;;19.11;70.36;99092.69;4384126;32;33468;-92
2023/05/16 13:06:52;;;;;;;;;;;;;;;18.57;72.53;99109.97;4381923;32;32899;-92
2023/05/16 13:09:40;;;;;;;;;;;;;;;18.42;73.20;99108.66;4348927;32;34176;-90
2023/05/16 13:12:13;;;;;;;;;;;;;;;18.55;73.15;99098.56;4354518;32;32835;-90
2023/05/16 13:15:00;;;;;;;;;;;;;;;18.60;72.75;99082.94;4368711;32;34751;-89
2023/05/16 13:17:30;;;;;;;;;;;;;;;18.42;73.19;99095.28;4352334;32;34327;-89
2023/05/16 13:20:12;;;;;;;;;;;;;;;18.26;74.20;99073.53;4376025;32;32148;-89
2023/05/16 13:22:50;;;;;;;;;;;;;;;18.52;73.51;99065.91;4363373;32;33864;-89
2023/05/16 13:25:30;;;;;;;;;;;;;;;18.24;74.12;99054.97;4366166;32;34938;-90
2023/05/16 13:28:00;;;;;;;;;;;;;;;17.98;75.21;99038.50;4371092;32;33732;-89
2023/05/16 13:30:31;;;;;;;;;;;;;;;18.20;74.17;99039.34;4371410;32;32212;-90